sensor_id;sensor_type;location;lat;lon;timestamp;P1;durP1;ratioP1;P2;durP2;ratioP2
38909;SDS011;24676;51.360;12.354;2023-07-29T00:02:27;0.68;;;0.30;;
38909;SDS011;24676;51.360;12.354;2023-07-29T00:05:14;0.25;;;0.25;;
38909;SDS011;24676;51.360;12.354;2023-07-29T00:07:58;0.38;;;0.35;;
38909;SDS011;24676;51.360;12.354;2023-07-29T00:10:43;1.02;;;0.95;;
38909;SDS011;24676;51.360;12.354;2023-07-29T00:13:27;0.43;;;0.43;;
38909;SDS011;24676;51.360;12.354;2023-07-29T00:16:12;2.28;;;0.68;;
38909;SDS011;24676;51.360;12.354;2023-07-29T00:18:56;0.20;;;0.20;;
38909;SDS011;24676;51.360;12.354;2023-07-29T00:21:40;0.38;;;0.30;;
38909;SDS011;24676;51.360;12.354;2023-07-29T00:24:25;2.17;;;0.52;;
38909;SDS011;24676;51.360;12.354;2023-07-29T00:27:09;0.47;;;0.40;;
38909;SDS011;24676;51.360;12.354;2023-07-29T00:29:53;0.65;;;0.57;;
38909;SDS011;24676;51.360;12.354;2023-07-29T00:32:37;0.55;;;0.52;;
38909;SDS011;24676;51.360;12.354;2023-07-29T00:35:21;0.80;;;0.80;;
38909;SDS011;24676;51.360;12.354;2023-07-29T00:38:06;0.38;;;0.20;;
38909;SDS011;24676;51.360;12.354;2023-07-29T00:40:50;0.28;;;0.28;;
38909;SDS011;24676;51.360;12.354;2023-07-29T00:43:35;0.50;;;0.45;;
38909;SDS011;24676;51.360;12.354;2023-07-29T00:46:19;0.20;;;0.20;;
38909;SDS011;24676;51.360;12.354;2023-07-29T00:49:04;0.40;;;0.40;;
38909;SDS011;24676;51.360;12.354;2023-07-29T00:51:49;0.52;;;0.43;;
38909;SDS011;24676;51.360;12.354;2023-07-29T00:54:33;0.80;;;0.57;;
38909;SDS011;24676;51.360;12.354;2023-07-29T00:57:18;0.85;;;0.73;;
38909;SDS011;24676;51.360;12.354;2023-07-29T01:00:04;0.45;;;0.40;;
38909;SDS011;24676;51.360;12.354;2023-07-29T01:02:49;2.35;;;0.45;;
38909;SDS011;24676;51.360;12.354;2023-07-29T01:05:39;0.85;;;0.57;;
38909;SDS011;24676;51.360;12.354;2023-07-29T01:11:38;0.40;;;0.40;;
38909;SDS011;24676;51.360;12.354;2023-07-29T01:17:33;0.60;;;0.60;;
38909;SDS011;24676;51.360;12.354;2023-07-29T01:20:20;0.30;;;0.30;;
38909;SDS011;24676;51.360;12.354;2023-07-29T01:23:06;0.77;;;0.77;;
38909;SDS011;24676;51.360;12.354;2023-07-29T01:25:51;0.90;;;0.90;;
38909;SDS011;24676;51.360;12.354;2023-07-29T01:28:35;0.52;;;0.38;;
38909;SDS011;24676;51.360;12.354;2023-07-29T01:31:25;0.90;;;0.60;;
38909;SDS011;24676;51.360;12.354;2023-07-29T01:34:20;0.50;;;0.50;;
38909;SDS011;24676;51.360;12.354;2023-07-29T01:37:17;0.77;;;0.77;;
38909;SDS011;24676;51.360;12.354;2023-07-29T01:40:06;0.65;;;0.52;;
38909;SDS011;24676;51.360;12.354;2023-07-29T01:42:52;0.60;;;0.60;;
38909;SDS011;24676;51.360;12.354;2023-07-29T01:45:37;0.82;;;0.65;;
38909;SDS011;24676;51.360;12.354;2023-07-29T01:48:22;0.57;;;0.55;;
38909;SDS011;24676;51.360;12.354;2023-07-29T01:51:06;0.65;;;0.52;;
38909;SDS011;24676;51.360;12.354;2023-07-29T01:53:51;1.30;;;1.10;;
38909;SDS011;24676;51.360;12.354;2023-07-29T01:56:35;1.25;;;0.60;;
38909;SDS011;24676;51.360;12.354;2023-07-29T01:59:20;0.50;;;0.50;;
38909;SDS011;24676;51.360;12.354;2023-07-29T02:02:04;0.40;;;0.40;;
38909;SDS011;24676;51.360;12.354;2023-07-29T02:04:49;0.43;;;0.40;;
38909;SDS011;24676;51.360;12.354;2023-07-29T02:07:34;0.35;;;0.35;;
38909;SDS011;24676;51.360;12.354;2023-07-29T02:10:19;2.10;;;0.52;;
38909;SDS011;24676;51.360;12.354;2023-07-29T02:13:04;0.30;;;0.30;;
38909;SDS011;24676;51.360;12.354;2023-07-29T02:15:48;0.85;;;0.43;;
38909;SDS011;24676;51.360;12.354;2023-07-29T02:18:32;1.58;;;0.68;;
38909;SDS011;24676;51.360;12.354;2023-07-29T02:21:16;0.43;;;0.43;;
38909;SDS011;24676;51.360;12.354;2023-07-29T02:24:01;0.80;;;0.57;;
38909;SDS011;24676;51.360;12.354;2023-07-29T02:26:45;0.65;;;0.65;;
38909;SDS011;24676;51.360;12.354;2023-07-29T02:29:29;0.80;;;0.70;;
38909;SDS011;24676;51.360;12.354;2023-07-29T02:32:14;0.30;;;0.30;;
38909;SDS011;24676;51.360;12.354;2023-07-29T02:34:58;0.40;;;0.40;;
38909;SDS011;24676;51.360;12.354;2023-07-29T02:37:42;0.30;;;0.30;;
38909;SDS011;24676;51.360;12.354;2023-07-29T02:40:27;2.05;;;0.50;;
38909;SDS011;24676;51.360;12.354;2023-07-29T02:43:12;0.88;;;0.80;;
38909;SDS011;24676;51.360;12.354;2023-07-29T02:45:57;1.20;;;0.35;;
38909;SDS011;24676;51.360;12.354;2023-07-29T02:48:42;0.40;;;0.40;;
38909;SDS011;24676;51.360;12.354;2023-07-29T02:51:27;0.60;;;0.40;;
38909;SDS011;24676;51.360;12.354;2023-07-29T02:54:12;0.20;;;0.20;;
38909;SDS011;24676;51.360;12.354;2023-07-29T02:56:56;0.73;;;0.63;;
38909;SDS011;24676;51.360;12.354;2023-07-29T02:59:40;0.60;;;0.60;;
38909;SDS011;24676;51.360;12.354;2023-07-29T03:02:25;0.50;;;0.50;;
38909;SDS011;24676;51.360;12.354;2023-07-29T03:05:09;0.52;;;0.52;;
38909;SDS011;24676;51.360;12.354;2023-07-29T03:07:53;0.50;;;0.50;;
38909;SDS011;24676;51.360;12.354;2023-07-29T03:10:38;0.90;;;0.60;;
38909;SDS011;24676;51.360;12.354;2023-07-29T03:13:22;1.85;;;0.88;;
38909;SDS011;24676;51.360;12.354;2023-07-29T03:16:24;0.57;;;0.55;;
38909;SDS011;24676;51.360;12.354;2023-07-29T03:19:08;1.08;;;0.82;;
38909;SDS011;24676;51.360;12.354;2023-07-29T03:21:53;0.55;;;0.55;;
38909;SDS011;24676;51.360;12.354;2023-07-29T03:24:37;0.47;;;0.47;;
38909;SDS011;24676;51.360;12.354;2023-07-29T03:27:21;0.55;;;0.50;;
38909;SDS011;24676;51.360;12.354;2023-07-29T03:30:05;0.50;;;0.50;;
38909;SDS011;24676;51.360;12.354;2023-07-29T03:32:51;0.43;;;0.40;;
38909;SDS011;24676;51.360;12.354;2023-07-29T03:35:36;0.68;;;0.43;;
38909;SDS011;24676;51.360;12.354;2023-07-29T03:38:20;1.05;;;0.50;;
38909;SDS011;24676;51.360;12.354;2023-07-29T03:41:04;0.70;;;0.63;;
38909;SDS011;24676;51.360;12.354;2023-07-29T03:43:49;0.50;;;0.50;;
38909;SDS011;24676;51.360;12.354;2023-07-29T03:46:34;0.38;;;0.35;;
38909;SDS011;24676;51.360;12.354;2023-07-29T03:49:18;0.73;;;0.73;;
38909;SDS011;24676;51.360;12.354;2023-07-29T03:52:02;0.50;;;0.50;;
38909;SDS011;24676;51.360;12.354;2023-07-29T03:54:47;1.95;;;0.68;;
38909;SDS011;24676;51.360;12.354;2023-07-29T03:57:32;2.80;;;0.98;;
38909;SDS011;24676;51.360;12.354;2023-07-29T04:00:16;2.42;;;0.80;;
38909;SDS011;24676;51.360;12.354;2023-07-29T04:03:00;0.32;;;0.32;;
38909;SDS011;24676;51.360;12.354;2023-07-29T04:05:44;2.38;;;0.70;;
38909;SDS011;24676;51.360;12.354;2023-07-29T04:08:28;0.45;;;0.45;;
38909;SDS011;24676;51.360;12.354;2023-07-29T04:11:12;0.60;;;0.60;;
38909;SDS011;24676;51.360;12.354;2023-07-29T04:13:56;2.85;;;1.23;;
38909;SDS011;24676;51.360;12.354;2023-07-29T04:16:41;0.63;;;0.63;;
38909;SDS011;24676;51.360;12.354;2023-07-29T04:19:26;0.60;;;0.60;;
38909;SDS011;24676;51.360;12.354;2023-07-29T04:22:10;0.98;;;0.98;;
38909;SDS011;24676;51.360;12.354;2023-07-29T04:24:56;0.88;;;0.80;;
38909;SDS011;24676;51.360;12.354;2023-07-29T04:27:40;0.32;;;0.32;;
38909;SDS011;24676;51.360;12.354;2023-07-29T04:30:24;1.83;;;1.25;;
38909;SDS011;24676;51.360;12.354;2023-07-29T04:33:08;0.63;;;0.63;;
38909;SDS011;24676;51.360;12.354;2023-07-29T04:35:52;0.70;;;0.70;;
38909;SDS011;24676;51.360;12.354;2023-07-29T04:38:37;1.08;;;0.93;;
38909;SDS011;24676;51.360;12.354;2023-07-29T04:41:21;0.60;;;0.60;;
38909;SDS011;24676;51.360;12.354;2023-07-29T04:44:05;1.33;;;1.23;;
38909;SDS011;24676;51.360;12.354;2023-07-29T04:46:50;1.52;;;1.15;;
38909;SDS011;24676;51.360;12.354;2023-07-29T04:49:34;2.17;;;0.40;;
38909;SDS011;24676;51.360;12.354;2023-07-29T04:52:18;0.55;;;0.55;;
38909;SDS011;24676;51.360;12.354;2023-07-29T04:55:03;0.30;;;0.30;;
38909;SDS011;24676;51.360;12.354;2023-07-29T04:57:47;0.50;;;0.50;;
38909;SDS011;24676;51.360;12.354;2023-07-29T05:00:31;0.40;;;0.40;;
38909;SDS011;24676;51.360;12.354;2023-07-29T05:03:17;3.58;;;0.50;;
38909;SDS011;24676;51.360;12.354;2023-07-29T05:08:45;0.35;;;0.30;;
38909;SDS011;24676;51.360;12.354;2023-07-29T05:11:29;0.30;;;0.30;;
38909;SDS011;24676;51.360;12.354;2023-07-29T05:14:14;0.55;;;0.55;;
38909;SDS011;24676;51.360;12.354;2023-07-29T05:22:28;0.90;;;0.52;;
38909;SDS011;24676;51.360;12.354;2023-07-29T05:25:13;0.82;;;0.40;;
38909;SDS011;24676;51.360;12.354;2023-07-29T05:27:57;0.30;;;0.30;;
38909;SDS011;24676;51.360;12.354;2023-07-29T05:30:41;0.20;;;0.20;;
38909;SDS011;24676;51.360;12.354;2023-07-29T05:33:27;0.22;;;0.15;;
38909;SDS011;24676;51.360;12.354;2023-07-29T05:38:56;0.13;;;0.13;;
38909;SDS011;24676;51.360;12.354;2023-07-29T05:41:40;0.22;;;0.22;;
38909;SDS011;24676;51.360;12.354;2023-07-29T05:44:24;0.47;;;0.47;;
38909;SDS011;24676;51.360;12.354;2023-07-29T05:47:08;3.13;;;0.43;;
38909;SDS011;24676;51.360;12.354;2023-07-29T05:49:52;0.45;;;0.30;;
38909;SDS011;24676;51.360;12.354;2023-07-29T05:52:38;0.20;;;0.20;;
38909;SDS011;24676;51.360;12.354;2023-07-29T05:55:22;1.20;;;0.30;;
38909;SDS011;24676;51.360;12.354;2023-07-29T05:58:06;1.33;;;0.50;;
38909;SDS011;24676;51.360;12.354;2023-07-29T06:03:34;0.40;;;0.40;;
38909;SDS011;24676;51.360;12.354;2023-07-29T06:06:18;0.43;;;0.28;;
38909;SDS011;24676;51.360;12.354;2023-07-29T06:09:02;0.40;;;0.40;;
38909;SDS011;24676;51.360;12.354;2023-07-29T06:11:47;0.30;;;0.30;;
38909;SDS011;24676;51.360;12.354;2023-07-29T06:14:31;1.10;;;0.25;;
38909;SDS011;24676;51.360;12.354;2023-07-29T06:17:15;0.22;;;0.22;;
38909;SDS011;24676;51.360;12.354;2023-07-29T06:19:59;0.40;;;0.40;;
38909;SDS011;24676;51.360;12.354;2023-07-29T06:22:43;0.40;;;0.40;;
38909;SDS011;24676;51.360;12.354;2023-07-29T06:25:27;0.50;;;0.50;;
38909;SDS011;24676;51.360;12.354;2023-07-29T06:28:11;0.70;;;0.70;;
38909;SDS011;24676;51.360;12.354;2023-07-29T06:30:55;0.55;;;0.55;;
38909;SDS011;24676;51.360;12.354;2023-07-29T06:33:40;3.13;;;0.40;;
38909;SDS011;24676;51.360;12.354;2023-07-29T06:39:08;2.15;;;0.47;;
38909;SDS011;24676;51.360;12.354;2023-07-29T06:41:52;0.37;;;0.37;;
38909;SDS011;24676;51.360;12.354;2023-07-29T06:44:36;0.50;;;0.50;;
38909;SDS011;24676;51.360;12.354;2023-07-29T06:47:20;0.40;;;0.40;;
38909;SDS011;24676;51.360;12.354;2023-07-29T06:50:05;0.20;;;0.20;;
38909;SDS011;24676;51.360;12.354;2023-07-29T06:52:49;0.40;;;0.40;;
38909;SDS011;24676;51.360;12.354;2023-07-29T06:58:17;0.50;;;0.50;;
38909;SDS011;24676;51.360;12.354;2023-07-29T07:01:02;0.63;;;0.45;;
38909;SDS011;24676;51.360;12.354;2023-07-29T07:06:31;0.50;;;0.40;;
38909;SDS011;24676;51.360;12.354;2023-07-29T07:09:15;0.22;;;0.22;;
38909;SDS011;24676;51.360;12.354;2023-07-29T07:11:59;0.75;;;0.52;;
38909;SDS011;24676;51.360;12.354;2023-07-29T07:20:12;0.50;;;0.50;;
38909;SDS011;24676;51.360;12.354;2023-07-29T07:25:41;0.20;;;0.20;;
38909;SDS011;24676;51.360;12.354;2023-07-29T07:28:26;0.38;;;0.38;;
38909;SDS011;24676;51.360;12.354;2023-07-29T07:31:10;1.33;;;0.43;;
38909;SDS011;24676;51.360;12.354;2023-07-29T07:33:54;0.43;;;0.43;;
38909;SDS011;24676;51.360;12.354;2023-07-29T08:25:55;1.00;;;0.90;;
38909;SDS011;24676;51.360;12.354;2023-07-29T08:28:44;0.35;;;0.35;;
38909;SDS011;24676;51.360;12.354;2023-07-29T08:31:28;0.40;;;0.40;;
38909;SDS011;24676;51.360;12.354;2023-07-29T08:34:14;1.38;;;0.40;;
38909;SDS011;24676;51.360;12.354;2023-07-29T08:42:28;0.80;;;0.57;;
38909;SDS011;24676;51.360;12.354;2023-07-29T09:57:13;1.08;;;0.20;;
38909;SDS011;24676;51.360;12.354;2023-07-29T09:59:59;0.57;;;0.55;;
38909;SDS011;24676;51.360;12.354;2023-07-29T10:02:51;0.10;;;0.10;;
38909;SDS011;24676;51.360;12.354;2023-07-29T10:05:42;0.50;;;0.50;;
38909;SDS011;24676;51.360;12.354;2023-07-29T10:08:32;0.32;;;0.17;;
38909;SDS011;24676;51.360;12.354;2023-07-29T10:11:23;0.35;;;0.35;;
38909;SDS011;24676;51.360;12.354;2023-07-29T10:14:13;0.25;;;0.25;;
38909;SDS011;24676;51.360;12.354;2023-07-29T10:17:02;1.55;;;0.30;;
38909;SDS011;24676;51.360;12.354;2023-07-29T10:19:52;0.20;;;0.20;;
38909;SDS011;24676;51.360;12.354;2023-07-29T10:22:42;0.60;;;0.60;;
38909;SDS011;24676;51.360;12.354;2023-07-29T10:25:35;0.30;;;0.30;;
38909;SDS011;24676;51.360;12.354;2023-07-29T10:28:29;0.43;;;0.43;;
38909;SDS011;24676;51.360;12.354;2023-07-29T10:31:16;0.22;;;0.20;;
38909;SDS011;24676;51.360;12.354;2023-07-29T10:34:01;0.50;;;0.20;;
38909;SDS011;24676;51.360;12.354;2023-07-29T10:36:46;0.20;;;0.20;;
38909;SDS011;24676;51.360;12.354;2023-07-29T10:39:38;1.98;;;0.30;;
38909;SDS011;24676;51.360;12.354;2023-07-29T10:42:23;0.08;;;0.08;;
38909;SDS011;24676;51.360;12.354;2023-07-29T10:45:18;0.30;;;0.30;;
38909;SDS011;24676;51.360;12.354;2023-07-29T10:48:13;1.30;;;0.52;;
38909;SDS011;24676;51.360;12.354;2023-07-29T10:51:29;1.15;;;0.57;;
38909;SDS011;24676;51.360;12.354;2023-07-29T10:54:13;3.38;;;0.65;;
38909;SDS011;24676;51.360;12.354;2023-07-29T10:56:58;0.57;;;0.57;;
38909;SDS011;24676;51.360;12.354;2023-07-29T10:59:55;0.35;;;0.35;;
38909;SDS011;24676;51.360;12.354;2023-07-29T11:02:40;2.67;;;0.45;;
38909;SDS011;24676;51.360;12.354;2023-07-29T11:05:24;0.30;;;0.30;;
38909;SDS011;24676;51.360;12.354;2023-07-29T11:08:15;1.50;;;0.45;;
38909;SDS011;24676;51.360;12.354;2023-07-29T11:11:02;0.30;;;0.30;;
38909;SDS011;24676;51.360;12.354;2023-07-29T11:13:48;0.40;;;0.40;;
38909;SDS011;24676;51.360;12.354;2023-07-29T11:57:39;1.30;;;0.50;;
38909;SDS011;24676;51.360;12.354;2023-07-29T12:03:09;0.35;;;0.25;;
38909;SDS011;24676;51.360;12.354;2023-07-29T12:05:54;0.20;;;0.20;;
38909;SDS011;24676;51.360;12.354;2023-07-29T12:08:38;0.75;;;0.75;;
38909;SDS011;24676;51.360;12.354;2023-07-29T12:14:07;0.50;;;0.50;;
38909;SDS011;24676;51.360;12.354;2023-07-29T12:16:51;0.60;;;0.60;;
38909;SDS011;24676;51.360;12.354;2023-07-29T12:19:38;0.60;;;0.50;;
38909;SDS011;24676;51.360;12.354;2023-07-29T12:22:22;0.95;;;0.50;;
38909;SDS011;24676;51.360;12.354;2023-07-29T12:25:08;0.60;;;0.60;;
38909;SDS011;24676;51.360;12.354;2023-07-29T14:25:52;1.27;;;0.70;;
38909;SDS011;24676;51.360;12.354;2023-07-29T14:28:36;1.30;;;0.85;;
38909;SDS011;24676;51.360;12.354;2023-07-29T14:34:05;0.52;;;0.52;;
38909;SDS011;24676;51.360;12.354;2023-07-29T14:36:50;1.38;;;0.75;;
38909;SDS011;24676;51.360;12.354;2023-07-29T14:39:34;0.65;;;0.65;;
38909;SDS011;24676;51.360;12.354;2023-07-29T14:42:18;1.55;;;1.42;;
38909;SDS011;24676;51.360;12.354;2023-07-29T14:45:02;1.23;;;0.60;;
38909;SDS011;24676;51.360;12.354;2023-07-29T14:47:47;0.85;;;0.82;;
38909;SDS011;24676;51.360;12.354;2023-07-29T14:50:31;0.82;;;0.60;;
38909;SDS011;24676;51.360;12.354;2023-07-29T14:53:15;1.35;;;1.25;;
38909;SDS011;24676;51.360;12.354;2023-07-29T14:56:00;2.00;;;0.50;;
38909;SDS011;24676;51.360;12.354;2023-07-29T14:58:45;1.90;;;1.00;;
38909;SDS011;24676;51.360;12.354;2023-07-29T15:01:29;0.60;;;0.45;;
38909;SDS011;24676;51.360;12.354;2023-07-29T15:04:13;1.17;;;1.00;;
38909;SDS011;24676;51.360;12.354;2023-07-29T15:06:58;2.40;;;0.98;;
38909;SDS011;24676;51.360;12.354;2023-07-29T15:09:42;2.40;;;0.80;;
38909;SDS011;24676;51.360;12.354;2023-07-29T15:12:26;0.43;;;0.40;;
38909;SDS011;24676;51.360;12.354;2023-07-29T15:15:11;1.42;;;0.75;;
38909;SDS011;24676;51.360;12.354;2023-07-29T15:17:55;1.17;;;0.60;;
38909;SDS011;24676;51.360;12.354;2023-07-29T15:20:40;1.55;;;0.65;;
38909;SDS011;24676;51.360;12.354;2023-07-29T15:23:24;0.68;;;0.55;;
38909;SDS011;24676;51.360;12.354;2023-07-29T15:26:08;3.13;;;1.13;;
38909;SDS011;24676;51.360;12.354;2023-07-29T15:28:53;0.70;;;0.70;;
38909;SDS011;24676;51.360;12.354;2023-07-29T15:31:37;0.93;;;0.93;;
38909;SDS011;24676;51.360;12.354;2023-07-29T15:34:24;2.80;;;1.02;;
38909;SDS011;24676;51.360;12.354;2023-07-29T15:37:09;2.75;;;0.98;;
38909;SDS011;24676;51.360;12.354;2023-07-29T15:39:53;1.63;;;0.70;;
38909;SDS011;24676;51.360;12.354;2023-07-29T15:42:38;4.47;;;1.05;;
38909;SDS011;24676;51.360;12.354;2023-07-29T15:45:22;3.92;;;1.40;;
38909;SDS011;24676;51.360;12.354;2023-07-29T15:48:07;3.63;;;1.45;;
38909;SDS011;24676;51.360;12.354;2023-07-29T15:50:51;1.08;;;0.73;;
38909;SDS011;24676;51.360;12.354;2023-07-29T15:53:34;1.42;;;0.90;;
38909;SDS011;24676;51.360;12.354;2023-07-29T15:56:19;1.77;;;1.23;;
38909;SDS011;24676;51.360;12.354;2023-07-29T15:59:04;2.00;;;1.30;;
38909;SDS011;24676;51.360;12.354;2023-07-29T16:01:48;3.13;;;1.63;;
38909;SDS011;24676;51.360;12.354;2023-07-29T16:04:33;2.88;;;1.25;;
38909;SDS011;24676;51.360;12.354;2023-07-29T16:07:18;3.17;;;1.02;;
38909;SDS011;24676;51.360;12.354;2023-07-29T16:10:02;1.35;;;1.10;;
38909;SDS011;24676;51.360;12.354;2023-07-29T16:12:47;3.50;;;1.17;;
38909;SDS011;24676;51.360;12.354;2023-07-29T16:15:31;1.60;;;1.00;;
38909;SDS011;24676;51.360;12.354;2023-07-29T16:18:15;5.72;;;0.85;;
38909;SDS011;24676;51.360;12.354;2023-07-29T16:20:59;1.08;;;0.93;;
38909;SDS011;24676;51.360;12.354;2023-07-29T16:23:47;0.82;;;0.80;;
38909;SDS011;24676;51.360;12.354;2023-07-29T16:26:36;1.45;;;0.90;;
38909;SDS011;24676;51.360;12.354;2023-07-29T16:29:21;1.17;;;1.00;;
38909;SDS011;24676;51.360;12.354;2023-07-29T16:32:05;1.95;;;1.60;;
38909;SDS011;24676;51.360;12.354;2023-07-29T16:34:50;1.70;;;1.13;;
38909;SDS011;24676;51.360;12.354;2023-07-29T16:37:35;1.13;;;0.65;;
38909;SDS011;24676;51.360;12.354;2023-07-29T16:40:19;1.13;;;1.02;;
38909;SDS011;24676;51.360;12.354;2023-07-29T16:43:03;1.38;;;1.10;;
38909;SDS011;24676;51.360;12.354;2023-07-29T16:45:48;2.13;;;0.70;;
38909;SDS011;24676;51.360;12.354;2023-07-29T16:48:32;2.40;;;1.23;;
38909;SDS011;24676;51.360;12.354;2023-07-29T16:51:16;3.85;;;1.38;;
38909;SDS011;24676;51.360;12.354;2023-07-29T16:54:00;1.00;;;0.63;;
38909;SDS011;24676;51.360;12.354;2023-07-29T16:56:48;1.25;;;0.82;;
38909;SDS011;24676;51.360;12.354;2023-07-29T16:59:32;2.70;;;1.20;;
38909;SDS011;24676;51.360;12.354;2023-07-29T17:02:16;1.63;;;1.17;;
38909;SDS011;24676;51.360;12.354;2023-07-29T17:05:00;1.48;;;1.08;;
38909;SDS011;24676;51.360;12.354;2023-07-29T17:07:47;2.70;;;1.20;;
38909;SDS011;24676;51.360;12.354;2023-07-29T17:10:31;0.80;;;0.50;;
38909;SDS011;24676;51.360;12.354;2023-07-29T17:13:16;1.95;;;1.35;;
38909;SDS011;24676;51.360;12.354;2023-07-29T17:16:00;1.02;;;1.02;;
38909;SDS011;24676;51.360;12.354;2023-07-29T17:18:45;1.48;;;0.93;;
38909;SDS011;24676;51.360;12.354;2023-07-29T17:21:29;0.63;;;0.63;;
38909;SDS011;24676;51.360;12.354;2023-07-29T17:24:13;0.80;;;0.80;;
38909;SDS011;24676;51.360;12.354;2023-07-29T17:26:57;1.23;;;0.70;;
38909;SDS011;24676;51.360;12.354;2023-07-29T17:29:41;8.25;;;0.90;;
38909;SDS011;24676;51.360;12.354;2023-07-29T17:32:26;1.10;;;0.65;;
38909;SDS011;24676;51.360;12.354;2023-07-29T17:35:10;2.05;;;1.20;;
38909;SDS011;24676;51.360;12.354;2023-07-29T17:37:55;1.67;;;1.02;;
38909;SDS011;24676;51.360;12.354;2023-07-29T17:40:39;1.45;;;1.15;;
38909;SDS011;24676;51.360;12.354;2023-07-29T17:43:24;1.42;;;1.10;;
38909;SDS011;24676;51.360;12.354;2023-07-29T17:46:09;2.92;;;1.45;;
38909;SDS011;24676;51.360;12.354;2023-07-29T17:48:57;0.98;;;0.68;;
38909;SDS011;24676;51.360;12.354;2023-07-29T17:51:41;3.75;;;0.75;;
38909;SDS011;24676;51.360;12.354;2023-07-29T17:54:25;2.55;;;0.88;;
38909;SDS011;24676;51.360;12.354;2023-07-29T17:57:09;3.33;;;0.60;;
38909;SDS011;24676;51.360;12.354;2023-07-29T17:59:53;0.82;;;0.82;;
38909;SDS011;24676;51.360;12.354;2023-07-29T18:02:37;1.77;;;0.98;;
38909;SDS011;24676;51.360;12.354;2023-07-29T18:05:21;5.85;;;1.70;;
38909;SDS011;24676;51.360;12.354;2023-07-29T18:08:06;1.98;;;1.50;;
38909;SDS011;24676;51.360;12.354;2023-07-29T18:10:50;4.28;;;2.33;;
38909;SDS011;24676;51.360;12.354;2023-07-29T18:13:34;2.47;;;1.40;;
38909;SDS011;24676;51.360;12.354;2023-07-29T18:16:19;0.95;;;0.90;;
38909;SDS011;24676;51.360;12.354;2023-07-29T18:19:03;0.60;;;0.57;;
38909;SDS011;24676;51.360;12.354;2023-07-29T18:21:47;1.30;;;0.75;;
38909;SDS011;24676;51.360;12.354;2023-07-29T18:24:31;1.80;;;0.80;;
38909;SDS011;24676;51.360;12.354;2023-07-29T18:27:15;2.97;;;1.00;;
38909;SDS011;24676;51.360;12.354;2023-07-29T18:30:00;1.35;;;0.90;;
38909;SDS011;24676;51.360;12.354;2023-07-29T18:32:44;1.80;;;1.17;;
38909;SDS011;24676;51.360;12.354;2023-07-29T18:35:28;1.85;;;0.52;;
38909;SDS011;24676;51.360;12.354;2023-07-29T18:38:12;0.70;;;0.70;;
38909;SDS011;24676;51.360;12.354;2023-07-29T18:40:57;1.00;;;0.93;;
38909;SDS011;24676;51.360;12.354;2023-07-29T18:43:41;1.55;;;0.80;;
38909;SDS011;24676;51.360;12.354;2023-07-29T18:46:25;0.82;;;0.75;;
38909;SDS011;24676;51.360;12.354;2023-07-29T18:49:11;0.77;;;0.70;;
38909;SDS011;24676;51.360;12.354;2023-07-29T18:51:56;1.52;;;0.90;;
38909;SDS011;24676;51.360;12.354;2023-07-29T18:54:41;2.38;;;1.52;;
38909;SDS011;24676;51.360;12.354;2023-07-29T18:57:27;0.80;;;0.80;;
38909;SDS011;24676;51.360;12.354;2023-07-29T19:00:11;2.17;;;0.85;;
38909;SDS011;24676;51.360;12.354;2023-07-29T19:02:56;0.88;;;0.88;;
38909;SDS011;24676;51.360;12.354;2023-07-29T19:05:40;4.30;;;1.08;;
38909;SDS011;24676;51.360;12.354;2023-07-29T19:08:25;1.35;;;0.93;;
38909;SDS011;24676;51.360;12.354;2023-07-29T19:11:09;0.98;;;0.80;;
38909;SDS011;24676;51.360;12.354;2023-07-29T19:13:54;1.25;;;1.15;;
38909;SDS011;24676;51.360;12.354;2023-07-29T19:16:38;1.60;;;1.42;;
38909;SDS011;24676;51.360;12.354;2023-07-29T19:19:23;2.47;;;1.70;;
38909;SDS011;24676;51.360;12.354;2023-07-29T19:22:07;3.08;;;2.45;;
38909;SDS011;24676;51.360;12.354;2023-07-29T19:24:51;2.13;;;1.85;;
38909;SDS011;24676;51.360;12.354;2023-07-29T19:27:36;3.28;;;2.05;;
38909;SDS011;24676;51.360;12.354;2023-07-29T19:30:20;2.15;;;1.77;;
38909;SDS011;24676;51.360;12.354;2023-07-29T19:33:04;3.88;;;1.52;;
38909;SDS011;24676;51.360;12.354;2023-07-29T19:35:55;2.97;;;1.85;;
38909;SDS011;24676;51.360;12.354;2023-07-29T19:38:40;5.53;;;2.75;;
38909;SDS011;24676;51.360;12.354;2023-07-29T19:41:24;5.40;;;3.45;;
38909;SDS011;24676;51.360;12.354;2023-07-29T19:44:10;11.15;;;4.32;;
38909;SDS011;24676;51.360;12.354;2023-07-29T19:46:54;8.15;;;4.38;;
38909;SDS011;24676;51.360;12.354;2023-07-29T19:49:39;4.38;;;3.00;;
38909;SDS011;24676;51.360;12.354;2023-07-29T19:52:23;4.47;;;3.63;;
38909;SDS011;24676;51.360;12.354;2023-07-29T19:55:07;3.33;;;2.58;;
38909;SDS011;24676;51.360;12.354;2023-07-29T19:57:52;3.83;;;2.17;;
38909;SDS011;24676;51.360;12.354;2023-07-29T20:00:36;2.38;;;1.60;;
38909;SDS011;24676;51.360;12.354;2023-07-29T20:03:20;2.05;;;1.42;;
38909;SDS011;24676;51.360;12.354;2023-07-29T20:06:04;1.95;;;1.38;;
38909;SDS011;24676;51.360;12.354;2023-07-29T20:08:49;1.35;;;1.20;;
38909;SDS011;24676;51.360;12.354;2023-07-29T20:11:33;1.77;;;1.55;;
38909;SDS011;24676;51.360;12.354;2023-07-29T20:14:17;2.90;;;1.65;;
38909;SDS011;24676;51.360;12.354;2023-07-29T20:17:02;2.00;;;1.23;;
38909;SDS011;24676;51.360;12.354;2023-07-29T20:19:46;1.52;;;1.20;;
38909;SDS011;24676;51.360;12.354;2023-07-29T20:22:31;2.30;;;1.75;;
38909;SDS011;24676;51.360;12.354;2023-07-29T20:25:15;2.00;;;1.77;;
38909;SDS011;24676;51.360;12.354;2023-07-29T20:27:59;2.25;;;1.92;;
38909;SDS011;24676;51.360;12.354;2023-07-29T20:30:43;6.88;;;2.40;;
38909;SDS011;24676;51.360;12.354;2023-07-29T20:33:28;1.30;;;1.20;;
38909;SDS011;24676;51.360;12.354;2023-07-29T20:36:12;4.47;;;2.17;;
38909;SDS011;24676;51.360;12.354;2023-07-29T20:38:56;2.08;;;1.88;;
38909;SDS011;24676;51.360;12.354;2023-07-29T20:41:40;2.05;;;1.52;;
38909;SDS011;24676;51.360;12.354;2023-07-29T20:44:26;2.97;;;1.55;;
38909;SDS011;24676;51.360;12.354;2023-07-29T20:47:11;2.38;;;1.90;;
38909;SDS011;24676;51.360;12.354;2023-07-29T20:49:55;2.33;;;0.98;;
38909;SDS011;24676;51.360;12.354;2023-07-29T20:52:40;3.08;;;1.65;;
38909;SDS011;24676;51.360;12.354;2023-07-29T20:55:24;5.93;;;1.73;;
38909;SDS011;24676;51.360;12.354;2023-07-29T20:58:08;1.50;;;1.40;;
38909;SDS011;24676;51.360;12.354;2023-07-29T21:00:53;2.75;;;1.25;;
38909;SDS011;24676;51.360;12.354;2023-07-29T21:03:37;1.48;;;1.33;;
38909;SDS011;24676;51.360;12.354;2023-07-29T21:06:22;2.83;;;1.75;;
38909;SDS011;24676;51.360;12.354;2023-07-29T21:09:06;3.50;;;1.77;;
38909;SDS011;24676;51.360;12.354;2023-07-29T21:11:50;4.47;;;1.85;;
38909;SDS011;24676;51.360;12.354;2023-07-29T21:14:38;2.08;;;1.42;;
38909;SDS011;24676;51.360;12.354;2023-07-29T21:17:22;3.75;;;2.78;;
38909;SDS011;24676;51.360;12.354;2023-07-29T21:20:07;4.20;;;2.70;;
38909;SDS011;24676;51.360;12.354;2023-07-29T21:22:51;5.10;;;3.17;;
38909;SDS011;24676;51.360;12.354;2023-07-29T21:25:36;5.45;;;2.50;;
38909;SDS011;24676;51.360;12.354;2023-07-29T21:28:20;4.97;;;3.05;;
38909;SDS011;24676;51.360;12.354;2023-07-29T21:31:05;7.53;;;3.63;;
38909;SDS011;24676;51.360;12.354;2023-07-29T21:33:49;6.43;;;4.75;;
38909;SDS011;24676;51.360;12.354;2023-07-29T21:36:34;4.90;;;2.88;;
38909;SDS011;24676;51.360;12.354;2023-07-29T21:39:18;3.28;;;2.97;;
38909;SDS011;24676;51.360;12.354;2023-07-29T21:42:02;3.17;;;2.58;;
38909;SDS011;24676;51.360;12.354;2023-07-29T21:44:47;2.17;;;1.63;;
38909;SDS011;24676;51.360;12.354;2023-07-29T21:47:31;1.77;;;1.48;;
38909;SDS011;24676;51.360;12.354;2023-07-29T21:50:14;2.00;;;1.52;;